Time;durP1;ratioP1;P1;durP2;ratioP2;P2;SDS_P1;SDS_P2;PMS_P1;PMS_P2;Temp;Humidity;BMP_temperature;BMP_pressure;BME280_temperature;BME280_humidity;BME280_pressure;Samples;Min_cycle;Max_cycle;Signal;HPM_P1;HPM_P2
2022/03/15 00:00:16;;;;;;;16.40;5.60;;;5.30;99.90;;;;;;5014197;28;20482;-85
2022/03/15 00:02:41;;;;;;;16.30;5.72;;;4.20;99.90;;;;;;4998021;28;20048;-85
2022/03/15 00:05:07;;;;;;;14.85;6.03;;;4.20;99.90;;;;;;5011770;28;20037;-84
2022/03/15 00:07:33;;;;;;;17.13;5.82;;;4.20;99.90;;;;;;5013791;28;20457;-85
2022/03/15 00:10:00;;;;;;;17.08;5.57;;;4.40;99.90;;;;;;4997882;28;20041;-85
2022/03/15 00:12:28;;;;;;;16.20;5.68;;;4.20;99.90;;;;;;4988530;28;20037;-85
2022/03/15 00:14:55;;;;;;;16.27;5.43;;;4.10;99.90;;;;;;5003383;28;20048;-84
2022/03/15 00:17:21;;;;;;;14.20;5.22;;;5.20;99.90;;;;;;5009106;28;20053;-85
2022/03/15 00:19:47;;;;;;;15.98;5.20;;;4.10;99.90;;;;;;4994385;28;20080;-85
2022/03/15 00:22:14;;;;;;;17.65;6.32;;;5.60;99.90;;;;;;5011398;28;20092;-85
2022/03/15 00:24:42;;;;;;;18.13;5.80;;;4.80;99.90;;;;;;4996897;28;20115;-85
2022/03/15 00:27:09;;;;;;;16.27;5.93;;;4.10;99.90;;;;;;5027720;28;20036;-85
2022/03/15 00:29:35;;;;;;;18.75;5.90;;;5.10;99.90;;;;;;5006665;28;20029;-85
2022/03/15 00:32:01;;;;;;;14.57;5.22;;;5.00;99.90;;;;;;5013127;28;20651;-85
2022/03/15 00:34:27;;;;;;;17.00;5.45;;;4.10;99.90;;;;;;5010665;28;20041;-85
2022/03/15 00:36:53;;;;;;;20.38;5.50;;;5.30;99.90;;;;;;5019118;28;20041;-85
2022/03/15 00:39:18;;;;;;;16.25;5.85;;;4.60;99.90;;;;;;4981901;28;20391;-85
2022/03/15 00:41:44;;;;;;;17.30;5.60;;;4.90;99.90;;;;;;5008329;28;20075;-85
2022/03/15 00:44:10;;;;;;;17.02;5.85;;;4.50;99.90;;;;;;4995394;28;20045;-85
2022/03/15 00:46:35;;;;;;;15.20;6.22;;;4.90;99.90;;;;;;5012832;28;20033;-85
2022/03/15 00:49:02;;;;;;;16.45;6.07;;;4.10;99.90;;;;;;4977373;28;20045;-85
2022/03/15 00:51:29;;;;;;;17.95;6.43;;;4.90;99.90;;;;;;5005901;28;20042;-86
2022/03/15 00:53:55;;;;;;;15.95;6.78;;;4.10;99.90;;;;;;4987342;28;20045;-84
2022/03/15 00:56:20;;;;;;;23.33;8.27;;;5.60;99.90;;;;;;5027364;28;20052;-86
2022/03/15 00:58:48;;;;;;;16.85;7.05;;;;;;;;;;4998381;28;20150;-85
2022/03/15 01:01:13;;;;;;;15.85;7.13;;;4.20;99.90;;;;;;5033866;28;20048;-86
2022/03/15 01:03:39;;;;;;;17.42;7.53;;;4.20;99.90;;;;;;4996751;28;20040;-85
2022/03/15 01:06:05;;;;;;;15.68;6.90;;;4.30;99.90;;;;;;5016682;28;20611;-86
2022/03/15 01:08:31;;;;;;;18.63;7.53;;;5.50;99.90;;;;;;5033794;28;20024;-86
2022/03/15 01:11:00;;;;;;;19.75;7.57;;;4.20;99.90;;;;;;4985887;28;20482;-86
2022/03/15 01:13:26;;;;;;;18.58;7.55;;;4.20;99.90;;;;;;4995952;28;20037;-87
2022/03/15 01:15:51;;;;;;;20.35;7.90;;;5.60;99.90;;;;;;5013845;28;20040;-86
2022/03/15 01:18:17;;;;;;;19.10;7.70;;;4.10;99.90;;;;;;4984754;28;20047;-86
2022/03/15 01:20:44;;;;;;;17.15;7.38;;;4.20;99.90;;;;;;5001673;28;20049;-87
2022/03/15 01:23:10;;;;;;;17.88;7.70;;;4.60;99.90;;;;;;5016675;28;20071;-85
2022/03/15 01:25:37;;;;;;;19.30;8.18;;;4.20;99.90;;;;;;5030026;28;20116;-86
2022/03/15 01:28:04;;;;;;;18.58;7.90;;;5.10;99.90;;;;;;4999846;28;20037;-86
2022/03/15 01:30:30;;;;;;;19.95;7.43;;;4.20;99.90;;;;;;5010288;28;20037;-86
2022/03/15 01:32:57;;;;;;;22.35;7.90;;;4.20;99.90;;;;;;5015312;28;20033;-86
2022/03/15 01:35:23;;;;;;;17.75;7.40;;;5.40;99.90;;;;;;4999996;28;20040;-87
2022/03/15 01:37:48;;;;;;;17.80;6.57;;;4.20;99.90;;;;;;4999188;28;20091;-86
2022/03/15 01:40:14;;;;;;;15.43;7.00;;;5.10;99.90;;;;;;5033851;28;20041;-86
2022/03/15 01:42:40;;;;;;;17.88;7.13;;;4.10;99.90;;;;;;4994834;28;20033;-86
2022/03/15 01:45:06;;;;;;;18.40;7.85;;;4.80;99.90;;;;;;5016894;28;20037;-86
2022/03/15 01:47:33;;;;;;;23.92;8.05;;;4.10;99.90;;;;;;5013444;28;20464;-86
2022/03/15 01:49:58;;;;;;;19.25;7.60;;;5.00;99.90;;;;;;5032930;28;20043;-87
2022/03/15 01:52:25;;;;;;;25.92;8.23;;;4.10;99.90;;;;;;4983714;28;20041;-86
2022/03/15 01:54:51;;;;;;;17.48;6.95;;;4.10;99.90;;;;;;5016362;28;20045;-86
2022/03/15 01:57:16;;;;;;;22.13;8.52;;;4.10;99.90;;;;;;4999455;28;20045;-85
2022/03/15 01:59:42;;;;;;;19.08;7.90;;;5.40;99.90;;;;;;4996107;28;20033;-85
2022/03/15 02:02:09;;;;;;;21.15;8.20;;;5.20;99.90;;;;;;5017186;28;20112;-86
2022/03/15 02:04:38;;;;;;;15.45;6.95;;;4.10;99.90;;;;;;5030528;28;20037;-86
2022/03/15 02:07:13;;;;;;;20.42;8.38;;;5.50;99.90;;;;;;5008883;28;20038;-86
2022/03/15 02:09:40;;;;;;;16.65;7.93;;;4.10;99.90;;;;;;5015032;28;20037;-86
2022/03/15 02:12:07;;;;;;;18.00;7.90;;;4.00;99.90;;;;;;5018334;28;20175;-86
2022/03/15 02:14:34;;;;;;;17.33;7.45;;;4.00;99.90;;;;;;4999215;28;20512;-86
2022/03/15 02:16:59;;;;;;;20.15;8.40;;;5.10;99.90;;;;;;4991770;28;20065;-87
2022/03/15 02:19:27;;;;;;;21.08;9.00;;;4.00;99.90;;;;;;5031275;28;20032;-86
2022/03/15 02:21:53;;;;;;;24.73;9.35;;;5.50;99.90;;;;;;5017352;28;20052;-86
2022/03/15 02:24:19;;;;;;;16.10;8.30;;;4.20;99.90;;;;;;5029775;28;20037;-86
2022/03/15 02:26:45;;;;;;;18.92;7.88;;;3.90;99.90;;;;;;5031337;28;20116;-86
2022/03/15 02:29:11;;;;;;;19.25;8.43;;;3.90;99.90;;;;;;5016576;28;20112;-86
2022/03/15 02:31:37;;;;;;;23.13;8.77;;;3.90;99.90;;;;;;4990457;28;20561;-86
2022/03/15 02:34:02;;;;;;;17.63;7.95;;;5.20;99.90;;;;;;4999507;28;20072;-86
2022/03/15 02:36:28;;;;;;;18.48;9.10;;;4.80;99.90;;;;;;4999355;28;20616;-86
2022/03/15 02:38:54;;;;;;;24.88;10.82;;;3.80;99.90;;;;;;4979800;28;20040;-85
2022/03/15 02:41:19;;;;;;;24.10;9.65;;;5.30;99.90;;;;;;5015803;28;20088;-86
2022/03/15 02:43:45;;;;;;;19.45;8.65;;;3.90;99.90;;;;;;5000256;28;20052;-86
2022/03/15 02:46:11;;;;;;;18.33;8.35;;;3.90;99.90;;;;;;5012943;28;20398;-86
2022/03/15 02:48:37;;;;;;;19.15;8.05;;;4.50;99.90;;;;;;5000257;28;20033;-86
2022/03/15 02:51:08;;;;;;;21.23;9.88;;;3.90;99.90;;;;;;4997513;28;20043;-86
2022/03/15 02:53:37;;;;;;;21.85;8.98;;;3.90;99.90;;;;;;5001519;28;20044;-84
2022/03/15 02:56:10;;;;;;;15.98;7.80;;;3.80;99.90;;;;;;4996745;28;20041;-86
2022/03/15 02:58:36;;;;;;;17.58;8.85;;;4.60;99.90;;;;;;5016997;28;20041;-85
2022/03/15 03:01:01;;;;;;;16.58;8.50;;;5.20;99.90;;;;;;5011080;28;20072;-85
2022/03/15 03:03:28;;;;;;;17.98;8.18;;;3.80;99.90;;;;;;4998223;28;20072;-86
2022/03/15 03:05:53;;;;;;;18.80;8.05;;;3.90;99.90;;;;;;4980775;28;20037;-87
2022/03/15 03:08:25;;;;;;;16.45;7.97;;;5.20;99.90;;;;;;5015573;28;20099;-85
2022/03/15 03:10:52;;;;;;;19.83;7.97;;;4.40;99.90;;;;;;4998016;28;21872;-86
2022/03/15 03:13:18;;;;;;;15.15;7.82;;;3.80;99.90;;;;;;4999966;28;20037;-86
2022/03/15 03:15:44;;;;;;;14.88;8.10;;;3.80;99.90;;;;;;5028889;28;20099;-86
2022/03/15 03:18:10;;;;;;;16.63;7.28;;;5.50;99.90;;;;;;5014235;28;20061;-86
2022/03/15 03:20:35;;;;;;;16.45;7.72;;;5.60;99.90;;;;;;4980174;28;20372;-86
2022/03/15 03:23:01;;;;;;;15.48;7.50;;;4.60;99.90;;;;;;4997656;28;20044;-86
2022/03/15 03:25:30;;;;;;;17.85;8.15;;;3.80;99.90;;;;;;5025980;28;20040;-85
2022/03/15 03:27:57;;;;;;;14.45;7.03;;;3.90;99.90;;;;;;4983291;28;20045;-86
2022/03/15 03:30:23;;;;;;;15.68;7.53;;;3.90;99.90;;;;;;5014223;28;20033;-86
2022/03/15 03:32:49;;;;;;;15.07;7.30;;;;;;;;;;4998814;28;20414;-86
2022/03/15 03:35:15;;;;;;;13.82;7.38;;;3.90;99.90;;;;;;4999737;28;20063;-87
2022/03/15 03:37:41;;;;;;;15.70;7.22;;;3.90;99.90;;;;;;5014543;28;20041;-86
2022/03/15 03:40:07;;;;;;;15.75;7.72;;;5.40;99.90;;;;;;4996858;28;20030;-86
2022/03/15 03:42:35;;;;;;;18.27;8.40;;;4.00;99.90;;;;;;5012684;28;20080;-85
2022/03/15 03:45:01;;;;;;;17.52;8.00;;;5.30;99.90;;;;;;5014871;28;20459;-86
2022/03/15 03:47:28;;;;;;;17.67;8.45;;;;;;;;;;5014159;28;20592;-86
2022/03/15 03:49:53;;;;;;;16.20;8.48;;;4.00;99.90;;;;;;4999137;28;20033;-85
2022/03/15 03:52:19;;;;;;;20.73;9.35;;;4.70;99.90;;;;;;5015115;28;20037;-86
2022/03/15 03:54:45;;;;;;;18.58;9.52;;;3.20;99.90;;;;;;4994683;28;20116;-86
2022/03/15 03:57:11;;;;;;;18.70;9.52;;;5.50;99.90;;;;;;4996450;28;20052;-86
2022/03/15 03:59:37;;;;;;;20.30;10.27;;;4.00;99.90;;;;;;4995593;28;20478;-85
2022/03/15 04:02:03;;;;;;;16.58;9.20;;;5.10;99.90;;;;;;4997210;28;20098;-85
2022/03/15 04:04:29;;;;;;;22.83;11.13;;;4.10;99.90;;;;;;5028111;28;20037;-86
2022/03/15 04:06:55;;;;;;;20.48;11.05;;;4.10;99.90;;;;;;5010881;28;20039;-85
2022/03/15 04:09:22;;;;;;;19.40;10.00;;;4.50;99.90;;;;;;5012669;28;20708;-86
2022/03/15 04:11:49;;;;;;;21.10;10.20;;;5.20;99.90;;;;;;4983132;28;20044;-86
2022/03/15 04:14:15;;;;;;;21.15;9.95;;;5.50;99.90;;;;;;5004582;28;20571;-85
2022/03/15 04:16:42;;;;;;;20.88;10.15;;;4.20;99.90;;;;;;5009929;28;20076;-85
2022/03/15 04:19:09;;;;;;;22.63;11.73;;;4.80;99.90;;;;;;5031384;28;20048;-86
2022/03/15 04:21:35;;;;;;;26.52;11.63;;;4.20;99.90;;;;;;5031476;28;20041;-86
2022/03/15 04:24:01;;;;;;;21.48;11.35;;;4.30;99.90;;;;;;5028397;28;20068;-86
2022/03/15 04:26:27;;;;;;;22.73;11.65;;;4.20;99.90;;;;;;4999036;28;20448;-86
2022/03/15 04:28:54;;;;;;;22.70;11.85;;;4.30;99.90;;;;;;4989800;28;20071;-86
2022/03/15 04:31:21;;;;;;;24.30;11.80;;;4.30;99.90;;;;;;5010360;28;20036;-86
2022/03/15 04:33:47;;;;;;;24.80;13.25;;;4.30;99.90;;;;;;4998780;28;20104;-86
2022/03/15 04:36:13;;;;;;;25.27;12.95;;;4.40;99.90;;;;;;5010011;28;20112;-86
2022/03/15 04:38:39;;;;;;;21.98;12.25;;;4.40;99.90;;;;;;5005340;28;20670;-86
2022/03/15 04:41:05;;;;;;;24.75;13.23;;;6.40;99.90;;;;;;5014490;28;20037;-87
2022/03/15 04:43:32;;;;;;;22.27;13.25;;;5.00;99.90;;;;;;5013502;28;20059;-86
2022/03/15 04:45:58;;;;;;;21.77;11.45;;;4.40;99.90;;;;;;5013978;28;20061;-86
2022/03/15 04:48:24;;;;;;;25.50;12.35;;;5.50;99.90;;;;;;5002542;28;20040;-85
2022/03/15 04:50:50;;;;;;;20.73;12.05;;;5.00;99.90;;;;;;5011474;28;20436;-87
2022/03/15 04:53:17;;;;;;;24.17;11.57;;;4.50;99.90;;;;;;4995985;28;20520;-86
2022/03/15 04:55:43;;;;;;;21.40;11.77;;;4.50;99.90;;;;;;5011267;28;20056;-86
2022/03/15 04:58:09;;;;;;;24.10;12.02;;;5.30;99.90;;;;;;5029694;28;20041;-86
2022/03/15 05:00:35;;;;;;;20.48;11.25;;;6.00;99.90;;;;;;4982210;28;20040;-87
2022/03/15 05:03:00;;;;;;;20.95;10.60;;;5.00;99.90;;;;;;5009517;28;20145;-85
2022/03/15 05:05:26;;;;;;;25.02;12.23;;;4.60;99.90;;;;;;5012840;28;20044;-86
2022/03/15 05:07:52;;;;;;;26.48;12.23;;;6.40;99.90;;;;;;5029154;28;20052;-85
2022/03/15 05:13:02;;;;;;;20.65;11.65;;;6.20;99.90;;;;;;5011551;28;20054;-84
2022/03/15 05:15:28;;;;;;;23.35;12.57;;;6.10;99.90;;;;;;5008955;28;20044;-86
2022/03/15 05:17:54;;;;;;;23.00;12.82;;;6.00;99.90;;;;;;5026341;28;20060;-85
2022/03/15 05:20:20;;;;;;;20.52;11.80;;;5.50;99.90;;;;;;5010422;28;20434;-86
2022/03/15 05:22:46;;;;;;;23.65;11.75;;;4.70;99.90;;;;;;4997308;28;20045;-86
2022/03/15 05:25:13;;;;;;;19.95;11.43;;;5.90;99.90;;;;;;5008839;28;20494;-84
2022/03/15 05:27:40;;;;;;;20.70;12.05;;;5.30;99.90;;;;;;5020844;28;20391;-86
2022/03/15 05:30:08;;;;;;;22.13;12.05;;;4.70;99.90;;;;;;4996533;28;20490;-85
2022/03/15 05:32:34;;;;;;;22.17;11.98;;;4.70;99.90;;;;;;4992448;28;20037;-86
2022/03/15 05:35:01;;;;;;;22.15;11.05;;;6.40;99.90;;;;;;5030148;28;20122;-86
2022/03/15 05:37:27;;;;;;;21.50;10.80;;;4.70;99.90;;;;;;5025711;28;20612;-86
2022/03/15 05:39:53;;;;;;;25.23;11.27;;;5.10;99.90;;;;;;4990822;28;20037;-86
2022/03/15 05:42:19;;;;;;;25.80;11.60;;;4.70;99.90;;;;;;5007138;28;20052;-85
2022/03/15 05:44:46;;;;;;;21.38;10.55;;;6.00;99.90;;;;;;5026263;28;20037;-85
2022/03/15 05:47:12;;;;;;;24.92;11.60;;;5.40;99.90;;;;;;5014989;28;20035;-86
2022/03/15 05:49:38;;;;;;;23.77;11.52;;;6.30;99.90;;;;;;5033522;28;20108;-85
2022/03/15 05:52:04;;;;;;;25.83;12.27;;;4.90;99.90;;;;;;4983266;28;20041;-86
2022/03/15 05:54:30;;;;;;;25.70;11.75;;;5.00;99.90;;;;;;5013960;28;20033;-86
2022/03/15 05:56:56;;;;;;;27.50;11.65;;;6.40;99.90;;;;;;5026967;28;20108;-85
2022/03/15 05:59:22;;;;;;;22.65;11.98;;;5.10;99.90;;;;;;5031650;28;20052;-85
2022/03/15 06:01:48;;;;;;;25.73;12.93;;;5.10;99.90;;;;;;5011198;28;20049;-85
2022/03/15 06:04:13;;;;;;;25.83;11.77;;;6.20;99.90;;;;;;4980493;28;20034;-86
2022/03/15 06:06:39;;;;;;;29.58;11.57;;;5.90;99.90;;;;;;5012580;28;20033;-86
2022/03/15 06:09:05;;;;;;;29.13;12.63;;;5.30;99.90;;;;;;5028932;28;20044;-86
2022/03/15 06:11:34;;;;;;;24.13;11.63;;;6.80;99.90;;;;;;5011008;28;20037;-86
2022/03/15 06:14:00;;;;;;;23.73;11.27;;;5.30;99.90;;;;;;5016070;28;20048;-86
2022/03/15 06:16:26;;;;;;;22.92;11.43;;;5.30;99.90;;;;;;5009429;28;20049;-86
2022/03/15 06:18:52;;;;;;;22.63;11.75;;;5.30;99.90;;;;;;4999660;28;20047;-86
2022/03/15 06:21:18;;;;;;;25.60;12.32;;;5.30;99.90;;;;;;5012676;28;20560;-85
2022/03/15 06:23:44;;;;;;;25.90;12.38;;;5.40;99.90;;;;;;5001414;28;20037;-86
2022/03/15 06:26:10;;;;;;;22.75;12.30;;;5.80;99.90;;;;;;5017213;28;20041;-86
2022/03/15 06:28:37;;;;;;;28.98;14.57;;;6.60;99.90;;;;;;5016522;28;20037;-85
2022/03/15 06:31:04;;;;;;;26.88;13.20;;;6.30;99.90;;;;;;4996772;28;20072;-86
2022/03/15 06:33:30;;;;;;;25.27;12.68;;;5.90;99.90;;;;;;4994784;28;20033;-86
2022/03/15 06:35:56;;;;;;;24.60;12.82;;;5.50;99.90;;;;;;4996548;28;20126;-86
2022/03/15 06:38:24;;;;;;;28.42;13.02;;;5.70;99.90;;;;;;4979250;28;20033;-86
2022/03/15 06:40:51;;;;;;;28.27;14.50;;;6.30;99.90;;;;;;5015740;28;20106;-86
2022/03/15 06:43:16;;;;;;;26.23;13.75;;;5.50;99.90;;;;;;4992942;28;20037;-86
2022/03/15 06:45:42;;;;;;;28.65;15.07;;;6.00;99.90;;;;;;4984641;28;20037;-86
2022/03/15 06:48:08;;;;;;;25.58;14.68;;;5.50;99.90;;;;;;4987565;28;20033;-86
2022/03/15 06:50:35;;;;;;;23.88;13.60;;;6.40;99.90;;;;;;4997661;28;20041;-86
2022/03/15 06:53:01;;;;;;;24.58;13.10;;;5.60;99.90;;;;;;5000480;28;20049;-85
2022/03/15 06:55:27;;;;;;;28.23;14.63;;;5.60;99.90;;;;;;4987262;28;20049;-85
2022/03/15 06:57:52;;;;;;;28.58;14.98;;;5.70;99.90;;;;;;4994216;28;20045;-85
2022/03/15 07:00:18;;;;;;;28.75;15.65;;;5.70;99.90;;;;;;5008729;28;20041;-85
2022/03/15 07:02:44;;;;;;;25.70;14.75;;;5.70;99.90;;;;;;5023425;28;20324;-85
2022/03/15 07:05:10;;;;;;;28.60;15.50;;;5.70;99.90;;;;;;5007866;28;20143;-85
2022/03/15 07:07:37;;;;;;;35.08;16.48;;;7.30;99.90;;;;;;5019149;28;20047;-84
2022/03/15 07:10:06;;;;;;;33.25;17.75;;;5.80;99.90;;;;;;5009059;28;20045;-83
2022/03/15 07:12:32;;;;;;;30.80;16.50;;;5.90;99.90;;;;;;5009890;28;20045;-85
2022/03/15 07:15:00;;;;;;;30.08;17.17;;;6.90;99.90;;;;;;5013671;28;20494;-87
2022/03/15 07:17:26;;;;;;;32.67;17.67;;;6.70;99.90;;;;;;5012092;28;20045;-85
2022/03/15 07:19:52;;;;;;;37.63;16.95;;;5.90;99.90;;;;;;5010401;28;20456;-86
2022/03/15 07:22:18;;;;;;;34.15;19.30;;;6.60;99.90;;;;;;5003217;28;20120;-87
2022/03/15 07:24:44;;;;;;;35.10;18.75;;;6.00;99.90;;;;;;5012484;28;20041;-84
2022/03/15 07:27:09;;;;;;;32.58;17.40;;;7.20;99.90;;;;;;4992612;28;20483;-85
2022/03/15 07:29:35;;;;;;;37.15;18.40;;;6.00;99.90;;;;;;4997385;28;20063;-85
2022/03/15 07:32:21;;;;;;;37.10;19.67;;;;;;;;;;5002130;28;20045;-85
2022/03/15 07:34:55;;;;;;;36.05;18.63;;;6.10;99.90;;;;;;5030964;28;20048;-85
2022/03/15 07:37:23;;;;;;;37.55;21.02;;;6.10;99.90;;;;;;5015313;28;20052;-85
2022/03/15 07:39:49;;;;;;;44.80;21.23;;;;;;;;;;5017379;28;20101;-89
2022/03/15 07:42:15;;;;;;;36.08;19.80;;;6.20;99.90;;;;;;5020426;28;20095;-86
2022/03/15 07:44:42;;;;;;;35.58;19.73;;;6.30;99.90;;;;;;4980111;28;20041;-87
2022/03/15 07:47:10;;;;;;;44.13;21.80;;;6.30;99.90;;;;;;5005744;28;20033;-85
2022/03/15 07:49:40;;;;;;;39.15;20.60;;;7.90;99.90;;;;;;4987538;28;20042;-87
2022/03/15 07:52:07;;;;;;;38.00;19.40;;;6.30;99.90;;;;;;4998657;28;20045;-88
2022/03/15 07:54:33;;;;;;;35.97;20.83;;;6.40;99.90;;;;;;5023215;28;20057;-87
2022/03/15 07:56:59;;;;;;;34.70;20.13;;;7.50;99.90;;;;;;5011492;28;20128;-87
2022/03/15 07:59:24;;;;;;;41.13;21.60;;;6.50;99.90;;;;;;5008601;28;20120;-87
2022/03/15 08:01:50;;;;;;;44.90;23.98;;;7.70;99.90;;;;;;4990802;28;20132;-87
2022/03/15 08:04:19;;;;;;;38.80;23.23;;;7.50;99.90;;;;;;4997781;28;20038;-87
2022/03/15 08:06:45;;;;;;;47.75;26.02;;;8.00;99.90;;;;;;5016409;28;20037;-86
2022/03/15 08:09:19;;;;;;;41.88;24.48;;;6.70;99.90;;;;;;5015852;28;20044;-86
2022/03/15 08:11:45;;;;;;;43.65;24.15;;;8.00;99.90;;;;;;5007759;28;20561;-86
2022/03/15 08:14:19;;;;;;;47.70;25.65;;;7.70;99.90;;;;;;4998891;28;20040;-87
2022/03/15 08:16:45;;;;;;;42.70;23.80;;;6.80;99.90;;;;;;4994342;28;20136;-85
2022/03/15 08:19:12;;;;;;;41.50;22.65;;;;;;;;;;5021154;28;20127;-87
2022/03/15 08:21:41;;;;;;;38.88;22.10;;;;;;;;;;5010893;28;20520;-89
2022/03/15 08:24:07;;;;;;;43.58;23.65;;;6.80;99.90;;;;;;5013711;28;20068;-87
2022/03/15 08:26:41;;;;;;;41.55;23.50;;;6.90;99.90;;;;;;5018085;28;20555;-86
2022/03/15 08:29:07;;;;;;;42.35;23.95;;;6.90;99.90;;;;;;5002502;28;20107;-85
2022/03/15 08:31:33;;;;;;;38.28;22.35;;;6.90;99.90;;;;;;5025960;28;20431;-85
2022/03/15 08:33:59;;;;;;;38.78;23.30;;;7.00;99.90;;;;;;4993560;28;20113;-86
2022/03/15 08:36:27;;;;;;;39.03;24.33;;;7.10;99.90;;;;;;5024954;28;20037;-85
2022/03/15 08:38:53;;;;;;;40.67;23.08;;;7.10;99.90;;;;;;4994280;28;20519;-84
2022/03/15 08:41:19;;;;;;;43.17;23.38;;;7.20;99.90;;;;;;5009647;28;20052;-85
2022/03/15 08:43:44;;;;;;;43.53;23.98;;;7.20;99.90;;;;;;5023821;28;20041;-86
2022/03/15 08:46:10;;;;;;;41.33;24.75;;;7.20;99.90;;;;;;4970475;28;20029;-87
2022/03/15 08:48:36;;;;;;;45.20;24.83;;;7.30;99.90;;;;;;5028338;28;20511;-87
2022/03/15 08:51:02;;;;;;;41.90;24.23;;;7.30;99.90;;;;;;5009489;28;20112;-86
2022/03/15 08:53:34;;;;;;;43.40;24.92;;;7.30;99.90;;;;;;5001597;28;20041;-87
2022/03/15 08:56:01;;;;;;;38.03;23.02;;;7.30;99.90;;;;;;5019961;28;20462;-86
2022/03/15 08:58:27;;;;;;;41.75;24.02;;;7.20;99.90;;;;;;4996933;28;20156;-87
2022/03/15 09:00:52;;;;;;;40.67;23.08;;;8.10;99.90;;;;;;4994965;28;20061;-87
2022/03/15 09:03:19;;;;;;;41.17;22.42;;;7.40;99.90;;;;;;5010380;28;20044;-85
2022/03/15 09:05:44;;;;;;;37.53;21.42;;;7.40;99.90;;;;;;5028604;28;20072;-86
2022/03/15 09:08:10;;;;;;;36.50;21.23;;;7.40;99.90;;;;;;5027365;28;20095;-87
2022/03/15 09:10:36;;;;;;;37.13;22.50;;;7.40;99.90;;;;;;4981100;28;20453;-86
2022/03/15 09:13:03;;;;;;;37.25;23.00;;;7.40;99.90;;;;;;5024275;28;20418;-88
2022/03/15 09:15:29;;;;;;;34.58;21.67;;;7.50;99.90;;;;;;5021252;28;20040;-87
2022/03/15 09:17:57;;;;;;;40.42;21.85;;;7.50;99.90;;;;;;5005888;28;20057;-87
2022/03/15 09:20:24;;;;;;;35.67;21.63;;;7.50;99.90;;;;;;5016521;28;20127;-87
2022/03/15 09:22:50;;;;;;;35.35;21.33;;;7.60;99.90;;;;;;5017737;28;20116;-88
2022/03/15 09:25:18;;;;;;;35.65;22.15;;;7.60;99.90;;;;;;5018296;28;20041;-87
2022/03/15 09:27:46;;;;;;;37.22;21.40;;;7.70;99.90;;;;;;5015510;28;20037;-87
2022/03/15 09:30:12;;;;;;;36.60;21.45;;;;;;;;;;5017700;28;20041;-87
2022/03/15 09:32:38;;;;;;;37.80;22.52;;;7.90;99.90;;;;;;5018826;28;20045;-88
2022/03/15 09:35:04;;;;;;;36.28;21.58;;;7.90;99.90;;;;;;5016277;28;20052;-86
2022/03/15 09:37:30;;;;;;;33.30;21.50;;;8.00;99.90;;;;;;4981915;28;20134;-86
2022/03/15 09:39:57;;;;;;;35.10;21.17;;;8.10;99.90;;;;;;5011957;28;20037;-87
2022/03/15 09:42:24;;;;;;;35.47;22.30;;;8.20;99.90;;;;;;4995581;28;20049;-86
2022/03/15 09:44:51;;;;;;;38.10;21.52;;;8.30;99.90;;;;;;5018309;28;20037;-88
2022/03/15 09:47:32;;;;;;;34.50;21.88;;;8.40;99.90;;;;;;4992810;28;20071;-89
2022/03/15 09:50:02;;;;;;;33.33;20.77;;;8.50;99.90;;;;;;5026763;28;20042;-86
2022/03/15 09:52:35;;;;;;;33.35;20.88;;;8.70;99.90;;;;;;5018199;28;20040;-86
2022/03/15 09:55:04;;;;;;;35.70;20.05;;;8.80;99.90;;;;;;5005945;28;20099;-88
2022/03/15 09:57:35;;;;;;;33.30;20.50;;;9.00;99.90;;;;;;5006434;28;20033;-88
2022/03/15 10:00:03;;;;;;;32.55;19.45;;;9.70;99.90;;;;;;5006088;28;20042;-88
2022/03/15 10:02:29;;;;;;;31.10;20.40;;;9.00;99.90;;;;;;5016085;28;20048;-86
2022/03/15 10:04:55;;;;;;;31.80;19.60;;;9.70;99.90;;;;;;5014974;28;20068;-89
2022/03/15 10:07:21;;;;;;;28.98;19.17;;;10.30;99.90;;;;;;5022953;28;20470;-86
2022/03/15 10:09:52;;;;;;;33.72;19.88;;;9.20;99.90;;;;;;5013847;28;20044;-86
2022/03/15 10:12:18;;;;;;;31.92;20.05;;;9.30;99.90;;;;;;5029399;28;20056;-87
2022/03/15 10:15:21;;;;;;;;;;;;;;;;;;;;;
2022/03/15 10:17:55;;;;;;;30.10;18.42;;;9.60;99.90;;;;;;5016283;28;20057;-88
2022/03/15 10:23:30;;;;;;;28.85;18.60;;;9.80;99.90;;;;;;5009199;28;20045;-90
2022/03/15 10:25:56;;;;;;;26.08;17.30;;;9.90;99.90;;;;;;5017053;28;20038;-88
2022/03/15 10:28:53;;;;;;;27.70;17.40;;;9.30;99.90;;;;;;5027534;28;20093;-86
2022/03/15 10:31:22;;;;;;;25.45;16.33;;;10.10;99.90;;;;;;5019849;28;20041;-87
2022/03/15 10:33:53;;;;;;;23.83;15.90;;;11.10;99.90;;;;;;5019241;28;20108;-89
2022/03/15 10:36:21;;;;;;;24.02;16.65;;;10.20;99.90;;;;;;4997783;28;20049;-88
2022/03/15 10:38:53;;;;;;;25.95;16.33;;;10.20;99.90;;;;;;5018010;28;20120;-88
2022/03/15 10:41:20;;;;;;;25.52;16.23;;;10.20;99.90;;;;;;5044078;28;20033;-87
2022/03/15 10:43:59;;;;;;;27.20;15.60;;;10.30;99.90;;;;;;5008476;28;20053;-87
2022/03/15 10:46:35;;;;;;;24.90;14.77;;;;;;;;;;5005467;28;20635;-86
2022/03/15 10:49:03;;;;;;;27.45;14.73;;;10.30;99.90;;;;;;5030589;28;20049;-90
2022/03/15 10:51:29;;;;;;;25.45;13.95;;;10.30;99.90;;;;;;5039537;28;20032;-90
2022/03/15 10:54:03;;;;;;;23.20;14.30;;;10.20;99.90;;;;;;5020920;28;20037;-90
2022/03/15 10:56:30;;;;;;;25.38;13.90;;;10.20;99.90;;;;;;4998982;28;20108;-88
2022/03/15 10:59:03;;;;;;;24.30;14.15;;;10.10;99.90;;;;;;5028752;28;20538;-89
2022/03/15 11:01:35;;;;;;;26.27;14.38;;;10.10;99.90;;;;;;5009511;28;20037;-87
2022/03/15 11:04:03;;;;;;;23.83;14.30;;;10.00;99.90;;;;;;5018466;28;20048;-88
2022/03/15 11:06:40;;;;;;;26.23;14.55;;;10.00;99.90;;;;;;5017302;28;20037;-86
2022/03/15 11:09:19;;;;;;;23.67;15.05;;;9.90;99.90;;;;;;5031412;28;20062;-88
2022/03/15 11:11:47;;;;;;;23.65;14.50;;;9.90;99.90;;;;;;5007306;28;20072;-88
2022/03/15 11:14:39;;;;;;;23.35;15.48;;;9.90;99.90;;;;;;5000786;28;20492;-88
2022/03/15 11:17:25;;;;;;;25.77;14.43;;;11.50;99.90;;;;;;5014113;28;20663;-88
2022/03/15 11:19:57;;;;;;;25.75;15.02;;;10.20;99.90;;;;;;5006007;28;20044;-88
2022/03/15 11:22:32;;;;;;;24.77;15.05;;;9.90;99.90;;;;;;5021582;28;20502;-88
2022/03/15 11:25:21;;;;;;;24.05;14.73;;;9.90;99.90;;;;;;5017471;28;20033;-88
2022/03/15 11:27:51;;;;;;;27.95;15.13;;;10.00;99.90;;;;;;5017187;28;20121;-88
2022/03/15 11:30:26;;;;;;;26.20;14.90;;;10.00;99.90;;;;;;5011887;28;20052;-87
2022/03/15 11:33:01;;;;;;;22.52;13.85;;;10.10;99.90;;;;;;5015941;28;20069;-88
2022/03/15 11:35:31;;;;;;;24.52;13.90;;;9.90;99.90;;;;;;5015154;28;20124;-88
2022/03/15 11:38:00;;;;;;;20.02;12.80;;;10.10;99.90;;;;;;5028700;28;20051;-88
2022/03/15 11:40:27;;;;;;;23.63;13.32;;;10.10;99.90;;;;;;4997475;28;20047;-87
2022/03/15 11:43:24;;;;;;;20.52;12.95;;;10.10;99.90;;;;;;5011997;28;20056;-87
2022/03/15 11:46:11;;;;;;;24.10;14.18;;;9.90;99.90;;;;;;5009584;28;20132;-87
2022/03/15 11:49:09;;;;;;;23.25;13.68;;;;;;;;;;5011829;28;20033;-88
2022/03/15 11:52:01;;;;;;;25.33;14.77;;;9.90;99.90;;;;;;5006837;28;20030;-87
2022/03/15 11:54:50;;;;;;;23.90;15.17;;;9.70;99.90;;;;;;5007284;28;20547;-87
2022/03/15 11:57:21;;;;;;;25.65;16.10;;;9.70;99.90;;;;;;5025794;28;20279;-87
2022/03/15 11:59:55;;;;;;;26.60;15.80;;;;;;;;;;5029096;28;20049;-93
2022/03/15 12:02:39;;;;;;;24.55;15.85;;;9.70;99.90;;;;;;5007358;28;20037;-86
2022/03/15 12:05:20;;;;;;;25.45;15.73;;;9.70;99.90;;;;;;5014334;28;20041;-88
2022/03/15 12:08:05;;;;;;;25.60;17.27;;;9.80;99.90;;;;;;5013441;28;20033;-87
2022/03/15 12:10:37;;;;;;;27.80;17.67;;;9.80;99.90;;;;;;5028174;28;20042;-87
2022/03/15 12:13:05;;;;;;;26.52;17.05;;;9.90;99.90;;;;;;5017611;28;20557;-88
2022/03/15 12:15:42;;;;;;;26.52;16.50;;;10.00;99.90;;;;;;5016273;28;20048;-89
2022/03/15 12:18:23;;;;;;;27.05;17.08;;;10.20;99.90;;;;;;5030268;28;20120;-89
2022/03/15 12:21:26;;;;;;;25.58;15.73;;;10.20;99.90;;;;;;5010206;28;20436;-88
2022/03/15 12:23:55;;;;;;;28.27;17.15;;;10.40;99.90;;;;;;5030810;28;20098;-89
2022/03/15 12:26:32;;;;;;;25.75;16.92;;;10.50;99.90;;;;;;5009839;28;20104;-86
2022/03/15 12:29:07;;;;;;;22.80;15.13;;;10.60;99.90;;;;;;5030021;28;20518;-89
2022/03/15 12:31:51;;;;;;;26.30;16.00;;;10.60;99.90;;;;;;5010349;28;20045;-88
2022/03/15 12:34:18;;;;;;;25.23;15.13;;;10.70;99.90;;;;;;5010576;28;20087;-86
2022/03/15 12:36:54;;;;;;;26.30;15.73;;;10.80;99.90;;;;;;5013544;28;20033;-88
2022/03/15 12:39:32;;;;;;;25.50;15.35;;;10.90;99.90;;;;;;5038183;28;20464;-89
2022/03/15 12:42:04;;;;;;;22.85;14.70;;;10.90;99.90;;;;;;5015677;28;20044;-92
2022/03/15 12:44:44;;;;;;;22.80;13.90;;;11.00;99.90;;;;;;5010363;28;20449;-86
2022/03/15 12:47:12;;;;;;;21.60;14.40;;;11.10;99.90;;;;;;5011500;28;20112;-89
2022/03/15 12:49:38;;;;;;;23.75;14.63;;;11.20;99.90;;;;;;5011691;28;20041;-89
2022/03/15 12:52:12;;;;;;;26.60;14.43;;;11.30;99.90;;;;;;4991164;28;20138;-85
2022/03/15 12:54:38;;;;;;;24.80;14.52;;;11.40;99.90;;;;;;5012624;28;20076;-88